Time;durP1;ratioP1;P1;durP2;ratioP2;P2;SDS_P1;SDS_P2;PMS_P1;PMS_P2;Temp;Humidity;BMP_temperature;BMP_pressure;BME280_temperature;BME280_humidity;BME280_pressure;Samples;Min_cycle;Max_cycle;Signal;HPM_P1;HPM_P2
2022/09/20 00:00:00;;;;;;;1.80;1.70;;;6.70;99.90;;;;;;468309;254;27390;-71
2022/09/20 00:02:01;;;;;;;1.93;1.70;;;6.60;99.90;;;;;;468312;254;27351;-68
2022/09/20 00:04:03;;;;;;;2.50;1.90;;;6.60;99.90;;;;;;468329;254;28767;-69
2022/09/20 00:06:04;;;;;;;1.80;1.70;;;6.50;99.90;;;;;;468201;254;27347;-71
2022/09/20 00:08:05;;;;;;;2.10;1.80;;;6.50;99.90;;;;;;468240;254;27947;-68
2022/09/20 00:10:06;;;;;;;3.00;1.80;;;6.50;99.90;;;;;;468319;254;27944;-71
2022/09/20 00:12:08;;;;;;;2.03;1.85;;;6.50;99.90;;;;;;468284;254;27427;-68
2022/09/20 00:14:09;;;;;;;1.90;1.80;;;6.50;99.90;;;;;;468255;254;27495;-68
2022/09/20 00:16:10;;;;;;;2.22;2.00;;;6.50;99.90;;;;;;468196;254;27431;-68
2022/09/20 00:18:11;;;;;;;1.70;1.60;;;6.50;99.90;;;;;;468268;254;27383;-68
2022/09/20 00:20:12;;;;;;;1.80;1.70;;;6.50;99.90;;;;;;468303;254;27481;-72
2022/09/20 00:22:14;;;;;;;2.47;1.67;;;6.50;99.90;;;;;;468292;254;27893;-67
2022/09/20 00:24:15;;;;;;;1.62;1.52;;;6.50;99.90;;;;;;468264;254;27391;-68
2022/09/20 00:26:16;;;;;;;1.80;1.70;;;6.40;99.90;;;;;;468160;254;27348;-68
2022/09/20 00:28:17;;;;;;;2.30;1.83;;;6.40;99.90;;;;;;468303;254;27421;-68
2022/09/20 00:30:19;;;;;;;1.95;1.85;;;6.40;99.90;;;;;;468304;254;27431;-69
2022/09/20 00:32:20;;;;;;;2.22;2.03;;;6.40;99.90;;;;;;468267;254;27420;-67
2022/09/20 00:36:41;;;;;;;1.95;1.85;;;6.30;99.90;;;;;;468208;254;28585;-68
2022/09/20 00:38:42;;;;;;;1.75;1.65;;;6.30;99.90;;;;;;468291;254;27352;-69
2022/09/20 00:40:43;;;;;;;1.90;1.80;;;6.30;99.90;;;;;;468251;254;27483;-70
2022/09/20 00:42:44;;;;;;;1.60;1.60;;;6.20;99.90;;;;;;468279;254;27347;-68
2022/09/20 00:44:46;;;;;;;3.22;1.73;;;6.20;99.90;;;;;;468263;254;27423;-68
2022/09/20 00:46:47;;;;;;;1.90;1.80;;;6.10;99.90;;;;;;468177;254;27727;-70
2022/09/20 00:48:48;;;;;;;2.08;1.77;;;6.10;99.90;;;;;;468288;254;27954;-68
2022/09/20 00:50:49;;;;;;;2.95;2.00;;;6.00;99.90;;;;;;468290;254;27375;-70
2022/09/20 00:52:51;;;;;;;1.83;1.73;;;5.90;99.90;;;;;;468284;254;27341;-67
2022/09/20 00:54:52;;;;;;;1.98;1.70;;;6.00;99.90;;;;;;468249;254;27486;-68
2022/09/20 00:56:53;;;;;;;3.37;2.05;;;6.00;99.90;;;;;;468190;254;27387;-67
2022/09/20 00:58:54;;;;;;;2.55;1.70;;;6.00;99.90;;;;;;468283;254;27407;-67
2022/09/20 01:00:56;;;;;;;1.98;1.87;;;6.00;99.90;;;;;;468268;254;27379;-68
2022/09/20 01:02:57;;;;;;;1.83;1.73;;;6.00;99.90;;;;;;470390;241;27898;-68
2022/09/20 01:04:58;;;;;;;1.75;1.65;;;6.00;99.90;;;;;;470196;252;28134;-67
2022/09/20 01:06:59;;;;;;;2.25;1.77;;;6.00;99.90;;;;;;470135;253;28013;-70
2022/09/20 01:09:01;;;;;;;1.87;1.77;;;6.00;99.90;;;;;;470175;253;27496;-67
2022/09/20 01:11:02;;;;;;;1.87;1.77;;;6.00;99.90;;;;;;470187;252;27570;-69
2022/09/20 01:13:04;;;;;;;1.80;1.70;;;6.00;99.90;;;;;;470215;252;27587;-68
2022/09/20 01:15:04;;;;;;;1.90;1.80;;;5.90;99.90;;;;;;470162;253;27522;-68
2022/09/20 01:17:06;;;;;;;1.90;1.80;;;5.90;99.90;;;;;;470151;253;27638;-72
2022/09/20 01:19:07;;;;;;;3.62;2.20;;;5.80;99.90;;;;;;470205;252;27592;-68
2022/09/20 01:21:08;;;;;;;2.00;1.80;;;5.70;99.90;;;;;;470224;252;28005;-68
2022/09/20 01:23:10;;;;;;;2.25;2.15;;;5.60;99.90;;;;;;470213;253;27943;-67
2022/09/20 01:25:11;;;;;;;2.10;2.00;;;5.70;99.90;;;;;;470191;252;27517;-67
2022/09/20 01:27:13;;;;;;;2.90;1.90;;;5.70;99.90;;;;;;470149;253;27539;-72
2022/09/20 01:29:13;;;;;;;1.95;1.85;;;5.70;99.90;;;;;;470238;252;27493;-69
2022/09/20 01:31:15;;;;;;;2.58;1.90;;;5.70;99.90;;;;;;470208;252;27689;-68
2022/09/20 01:33:16;;;;;;;2.55;1.83;;;5.70;99.90;;;;;;470192;252;27585;-68
2022/09/20 01:35:17;;;;;;;1.92;1.83;;;5.70;99.90;;;;;;470193;252;27647;-68
2022/09/20 01:37:18;;;;;;;1.80;1.70;;;5.70;99.90;;;;;;470156;251;27640;-73
2022/09/20 01:39:20;;;;;;;1.80;1.70;;;5.70;99.90;;;;;;470201;252;27956;-68
2022/09/20 01:41:21;;;;;;;1.90;1.80;;;5.70;99.90;;;;;;470208;252;28027;-67
2022/09/20 01:43:22;;;;;;;1.90;1.80;;;5.60;99.90;;;;;;470190;252;27546;-68
2022/09/20 01:45:23;;;;;;;1.95;1.75;;;5.60;99.90;;;;;;470199;252;27520;-68
2022/09/20 01:47:25;;;;;;;2.12;2.03;;;5.60;99.90;;;;;;470138;253;27634;-72
2022/09/20 01:49:26;;;;;;;1.90;1.70;;;5.60;99.90;;;;;;470220;252;27521;-68
2022/09/20 01:51:27;;;;;;;2.28;2.12;;;5.60;99.90;;;;;;470191;252;27546;-68
2022/09/20 01:53:28;;;;;;;3.08;1.80;;;5.60;99.90;;;;;;470185;252;27566;-67
2022/09/20 01:55:30;;;;;;;1.90;1.80;;;5.60;99.90;;;;;;470204;252;27499;-68
2022/09/20 01:57:31;;;;;;;2.70;2.00;;;5.60;99.90;;;;;;470146;252;27999;-70
2022/09/20 01:59:32;;;;;;;2.58;1.90;;;5.70;99.90;;;;;;470213;252;28041;-67
2022/09/20 02:01:33;;;;;;;1.85;1.70;;;5.60;99.90;;;;;;470212;252;28017;-68
2022/09/20 02:03:35;;;;;;;2.10;2.00;;;5.60;99.90;;;;;;473764;249;27557;-68
2022/09/20 02:05:36;;;;;;;1.83;1.73;;;5.50;99.90;;;;;;476917;249;27517;-68
2022/09/20 02:07:37;;;;;;;2.05;1.95;;;5.50;99.90;;;;;;476820;249;27572;-70
2022/09/20 02:09:38;;;;;;;2.45;1.85;;;5.50;99.90;;;;;;476877;249;27537;-67
2022/09/20 02:11:40;;;;;;;2.10;2.00;;;5.50;99.90;;;;;;476853;249;27541;-68
2022/09/20 02:13:41;;;;;;;2.65;1.77;;;5.50;99.90;;;;;;476918;248;27901;-70
2022/09/20 02:15:42;;;;;;;1.90;1.80;;;5.50;99.90;;;;;;476921;249;28049;-67
2022/09/20 02:17:43;;;;;;;2.00;1.90;;;5.40;99.90;;;;;;476841;249;28101;-70
2022/09/20 02:19:45;;;;;;;1.60;1.60;;;5.40;99.90;;;;;;476931;249;28038;-70
2022/09/20 02:21:46;;;;;;;1.80;1.70;;;5.40;99.90;;;;;;476885;249;27647;-68
2022/09/20 02:23:47;;;;;;;2.03;1.87;;;5.40;99.90;;;;;;476912;249;27642;-68
2022/09/20 02:25:48;;;;;;;1.95;1.85;;;5.40;99.90;;;;;;476913;249;27612;-68
2022/09/20 02:27:52;;;;;;;1.80;1.70;;;5.40;99.90;;;;;;476845;249;27557;-68
2022/09/20 02:29:51;;;;;;;1.95;1.85;;;5.40;99.90;;;;;;476773;249;27501;-68
2022/09/20 02:31:52;;;;;;;2.20;1.80;;;5.40;99.90;;;;;;476895;245;27556;-68
2022/09/20 02:33:54;;;;;;;2.17;1.90;;;5.40;99.90;;;;;;476943;249;27590;-70
2022/09/20 02:35:55;;;;;;;1.70;1.60;;;5.30;99.90;;;;;;476914;249;27513;-68
2022/09/20 02:37:56;;;;;;;1.80;1.70;;;5.40;99.90;;;;;;476828;249;27651;-68
2022/09/20 02:39:57;;;;;;;2.00;1.90;;;5.30;99.90;;;;;;476910;249;27520;-68
2022/09/20 02:41:59;;;;;;;2.03;1.92;;;5.30;99.90;;;;;;476862;249;27554;-67
2022/09/20 02:44:00;;;;;;;1.80;1.73;;;5.30;99.90;;;;;;476936;249;28051;-71
2022/09/20 02:46:01;;;;;;;1.87;1.77;;;5.30;99.90;;;;;;476887;249;27999;-73
2022/09/20 02:48:02;;;;;;;3.60;1.90;;;5.30;99.90;;;;;;476858;249;28146;-69
2022/09/20 02:50:04;;;;;;;2.00;1.90;;;5.30;99.90;;;;;;476905;249;27513;-67
2022/09/20 02:52:05;;;;;;;2.03;1.92;;;5.30;99.90;;;;;;476878;249;27551;-68
2022/09/20 02:54:06;;;;;;;1.80;1.70;;;5.30;99.90;;;;;;476896;249;27632;-67
2022/09/20 02:56:07;;;;;;;1.80;1.70;;;5.40;99.90;;;;;;476840;249;27616;-68
2022/09/20 02:58:09;;;;;;;1.90;1.80;;;5.50;99.90;;;;;;476934;249;27641;-68
2022/09/20 03:00:10;;;;;;;1.92;1.83;;;5.50;99.90;;;;;;476941;249;27540;-68
2022/09/20 03:02:11;;;;;;;2.15;1.80;;;5.60;99.90;;;;;;476862;249;28007;-68
2022/09/20 03:04:12;;;;;;;1.80;1.70;;;5.60;99.90;;;;;;477334;249;28219;-67
2022/09/20 03:06:14;;;;;;;2.03;1.92;;;5.70;99.90;;;;;;477993;248;27508;-68
2022/09/20 03:08:15;;;;;;;1.98;1.87;;;5.70;99.90;;;;;;478039;248;27663;-69
2022/09/20 03:10:16;;;;;;;2.00;1.90;;;5.70;99.90;;;;;;478038;248;27496;-67
2022/09/20 03:12:17;;;;;;;2.20;2.00;;;5.70;99.90;;;;;;478021;248;27540;-68
2022/09/20 03:14:21;;;;;;;3.45;1.90;;;5.70;99.90;;;;;;478040;248;27556;-71
2022/09/20 03:16:20;;;;;;;2.58;2.05;;;5.80;99.90;;;;;;477781;249;27506;-68
2022/09/20 03:18:21;;;;;;;1.77;1.60;;;5.70;99.90;;;;;;478049;248;28005;-68
2022/09/20 03:20:22;;;;;;;2.22;2.03;;;5.80;99.90;;;;;;478037;248;28125;-67
2022/09/20 03:22:24;;;;;;;1.90;1.80;;;5.80;99.90;;;;;;478011;248;27543;-68
2022/09/20 03:24:25;;;;;;;1.90;1.70;;;5.80;99.90;;;;;;478052;248;27654;-70
2022/09/20 03:26:26;;;;;;;1.75;1.70;;;5.80;99.90;;;;;;477976;248;27554;-68
2022/09/20 03:28:27;;;;;;;1.87;1.80;;;5.80;99.90;;;;;;478028;249;27548;-70
2022/09/20 03:30:29;;;;;;;1.80;1.70;;;5.70;99.90;;;;;;478048;248;27515;-68
2022/09/20 03:32:30;;;;;;;1.67;1.60;;;5.70;99.90;;;;;;478014;248;27535;-67
2022/09/20 03:34:31;;;;;;;1.70;1.70;;;5.80;99.90;;;;;;478055;248;28119;-71
2022/09/20 03:36:32;;;;;;;1.90;1.80;;;5.80;99.90;;;;;;477960;248;28133;-67
2022/09/20 03:38:34;;;;;;;1.85;1.75;;;5.80;99.90;;;;;;478046;248;27540;-69
2022/09/20 03:40:35;;;;;;;1.73;1.62;;;5.90;99.90;;;;;;478034;248;27598;-67
2022/09/20 03:42:36;;;;;;;2.35;1.75;;;5.90;99.90;;;;;;478048;248;27515;-68
2022/09/20 03:44:38;;;;;;;1.73;1.62;;;5.90;99.90;;;;;;478058;248;27630;-71
2022/09/20 03:46:39;;;;;;;1.85;1.75;;;5.90;99.90;;;;;;477955;248;27503;-68
2022/09/20 03:48:40;;;;;;;1.70;1.60;;;5.90;99.90;;;;;;477955;248;27995;-69
2022/09/20 03:50:41;;;;;;;1.90;1.80;;;5.90;99.90;;;;;;478025;248;28074;-67
2022/09/20 03:52:43;;;;;;;1.73;1.62;;;5.90;99.90;;;;;;478000;248;27506;-68
2022/09/20 03:54:44;;;;;;;1.90;1.80;;;6.00;99.90;;;;;;478019;248;27631;-70
2022/09/20 03:56:45;;;;;;;2.20;2.00;;;5.90;99.90;;;;;;477982;248;27588;-68
2022/09/20 03:58:47;;;;;;;2.67;2.47;;;5.90;99.90;;;;;;478006;249;27554;-69
2022/09/20 04:00:48;;;;;;;2.30;2.20;;;5.80;99.90;;;;;;477993;248;27592;-68
2022/09/20 04:02:49;;;;;;;2.60;2.28;;;5.80;99.90;;;;;;477990;248;27677;-68
2022/09/20 04:04:50;;;;;;;2.90;2.30;;;6.00;99.90;;;;;;478023;248;28112;-70
2022/09/20 04:06:51;;;;;;;2.30;2.20;;;6.10;99.90;;;;;;477941;248;27979;-68
2022/09/20 04:08:53;;;;;;;2.15;2.05;;;6.20;99.90;;;;;;478039;248;27569;-69
2022/09/20 04:10:54;;;;;;;2.00;1.80;;;6.20;99.90;;;;;;478039;248;27606;-68
2022/09/20 04:12:55;;;;;;;2.30;2.20;;;6.30;99.90;;;;;;478022;248;27649;-68
2022/09/20 04:14:56;;;;;;;2.20;2.10;;;6.20;99.90;;;;;;478066;248;27634;-71
2022/09/20 04:16:58;;;;;;;2.10;2.00;;;6.20;99.90;;;;;;477989;248;27595;-68
2022/09/20 04:18:59;;;;;;;2.10;2.00;;;6.20;99.90;;;;;;478082;248;28057;-69
2022/09/20 04:21:00;;;;;;;2.10;2.00;;;6.10;99.90;;;;;;478032;248;27978;-67
2022/09/20 04:23:01;;;;;;;2.25;2.10;;;6.00;99.90;;;;;;478026;248;27505;-68
2022/09/20 04:25:03;;;;;;;2.10;2.00;;;6.00;99.90;;;;;;478102;248;27658;-71
2022/09/20 04:27:04;;;;;;;2.58;2.42;;;6.00;99.90;;;;;;478039;248;27520;-68
2022/09/20 04:29:07;;;;;;;2.25;2.05;;;5.90;99.90;;;;;;478025;248;27547;-68
2022/09/20 04:31:06;;;;;;;2.60;2.40;;;5.90;99.90;;;;;;477680;249;27652;-67
2022/09/20 04:33:08;;;;;;;2.20;2.05;;;5.90;99.90;;;;;;478097;248;27508;-69
2022/09/20 04:37:31;;;;;;;2.08;1.90;;;5.90;99.90;;;;;;477957;249;28909;-68
2022/09/20 04:39:30;;;;;;;2.10;2.00;;;5.80;99.90;;;;;;477887;249;28086;-68
2022/09/20 04:41:33;;;;;;;1.90;1.80;;;5.80;99.90;;;;;;478061;249;28030;-70
2022/09/20 04:43:32;;;;;;;2.00;1.90;;;5.70;99.90;;;;;;477982;249;27517;-68
2022/09/20 04:45:34;;;;;;;2.25;2.10;;;5.80;99.90;;;;;;478073;248;27549;-67
2022/09/20 04:47:35;;;;;;;2.35;2.15;;;5.90;99.90;;;;;;478005;248;27626;-68
2022/09/20 04:49:36;;;;;;;2.30;2.20;;;5.90;99.90;;;;;;478061;249;27727;-68
2022/09/20 04:51:37;;;;;;;2.47;2.37;;;6.00;99.90;;;;;;478057;248;27634;-70
2022/09/20 04:53:39;;;;;;;2.25;2.15;;;6.10;99.90;;;;;;478045;248;28000;-68
2022/09/20 04:55:40;;;;;;;2.62;2.40;;;6.10;99.90;;;;;;478032;248;28068;-68
2022/09/20 04:57:41;;;;;;;3.45;2.30;;;6.10;99.90;;;;;;477968;249;27971;-68
2022/09/20 04:59:42;;;;;;;2.70;2.45;;;6.20;99.90;;;;;;478026;248;27504;-68
2022/09/20 05:01:44;;;;;;;2.50;2.30;;;6.30;99.90;;;;;;478063;248;27647;-71
2022/09/20 05:03:45;;;;;;;2.53;2.33;;;6.30;99.90;;;;;;478047;248;27499;-68
2022/09/20 05:05:46;;;;;;;2.80;2.60;;;6.30;99.90;;;;;;477965;248;27611;-68
2022/09/20 05:07:47;;;;;;;2.75;2.58;;;6.30;99.90;;;;;;477994;248;27600;-68
2022/09/20 05:09:49;;;;;;;4.93;2.80;;;6.30;99.90;;;;;;478069;248;27964;-68
2022/09/20 05:11:50;;;;;;;2.70;2.50;;;6.30;99.90;;;;;;477921;248;27995;-70
2022/09/20 05:13:51;;;;;;;3.85;2.95;;;6.40;99.90;;;;;;478050;249;27524;-68
2022/09/20 05:15:53;;;;;;;3.40;2.75;;;6.40;99.90;;;;;;478042;248;27602;-68
2022/09/20 05:17:54;;;;;;;3.85;2.75;;;6.50;99.90;;;;;;478032;248;27578;-70
2022/09/20 05:19:57;;;;;;;2.12;2.03;;;6.60;99.90;;;;;;478047;248;27646;-69
2022/09/20 05:21:57;;;;;;;3.67;3.00;;;6.60;99.90;;;;;;477952;248;27569;-69
2022/09/20 05:23:58;;;;;;;3.40;2.50;;;6.60;99.90;;;;;;478046;248;28147;-68
2022/09/20 05:25:59;;;;;;;2.42;2.28;;;6.60;99.90;;;;;;478028;248;28103;-73
2022/09/20 05:28:00;;;;;;;2.45;2.15;;;6.60;99.90;;;;;;478023;248;27550;-71
2022/09/20 05:30:01;;;;;;;2.60;2.40;;;6.60;99.90;;;;;;478045;248;27604;-67
2022/09/20 05:32:03;;;;;;;2.72;2.30;;;6.60;99.90;;;;;;478048;248;27583;-68
2022/09/20 05:34:04;;;;;;;2.80;2.60;;;6.70;99.90;;;;;;477995;248;27537;-68
2022/09/20 05:36:05;;;;;;;2.50;2.30;;;6.80;99.90;;;;;;477982;248;27601;-69
2022/09/20 05:38:07;;;;;;;2.75;2.50;;;6.70;99.90;;;;;;478052;248;28139;-70
2022/09/20 05:40:08;;;;;;;2.65;2.03;;;6.70;99.90;;;;;;478057;248;28051;-68
2022/09/20 05:42:09;;;;;;;2.22;2.12;;;6.60;99.90;;;;;;478031;248;27566;-67
2022/09/20 05:44:11;;;;;;;2.20;2.10;;;6.60;99.90;;;;;;478040;248;27594;-68
2022/09/20 05:46:11;;;;;;;3.78;2.78;;;6.70;99.90;;;;;;477935;248;27539;-68
2022/09/20 05:48:13;;;;;;;2.37;2.27;;;6.70;99.90;;;;;;478030;248;27564;-71
2022/09/20 05:50:14;;;;;;;2.57;2.47;;;6.70;99.90;;;;;;477989;248;28603;-68
2022/09/20 05:52:16;;;;;;;2.50;2.20;;;6.80;99.90;;;;;;478032;248;28621;-69
2022/09/20 05:54:16;;;;;;;2.73;2.20;;;6.70;99.90;;;;;;478014;248;29029;-68
2022/09/20 05:56:18;;;;;;;2.70;2.50;;;6.70;99.90;;;;;;477993;248;28950;-68
2022/09/20 05:58:20;;;;;;;3.25;2.20;;;6.70;99.90;;;;;;478068;248;28057;-72
2022/09/20 06:00:20;;;;;;;2.58;2.17;;;6.60;99.90;;;;;;477936;249;27514;-68
2022/09/20 06:02:22;;;;;;;2.40;2.20;;;6.60;99.90;;;;;;478033;248;27635;-68
2022/09/20 06:04:23;;;;;;;5.25;2.20;;;6.70;99.90;;;;;;477987;248;28879;-68
2022/09/20 06:06:24;;;;;;;2.25;2.05;;;6.80;99.90;;;;;;477954;248;27589;-68
2022/09/20 06:08:25;;;;;;;3.17;1.73;;;6.90;99.90;;;;;;478053;248;27582;-71
2022/09/20 06:10:29;;;;;;;2.10;2.00;;;6.90;99.90;;;;;;478094;248;28958;-68
2022/09/20 06:12:28;;;;;;;2.10;2.00;;;7.00;99.90;;;;;;477875;249;28015;-70
2022/09/20 06:14:29;;;;;;;2.78;2.55;;;7.10;99.90;;;;;;478073;248;28080;-68
2022/09/20 06:16:30;;;;;;;2.17;2.08;;;7.20;99.90;;;;;;477998;248;27546;-69
2022/09/20 06:18:32;;;;;;;2.58;2.30;;;7.30;99.90;;;;;;478070;248;27691;-72
2022/09/20 06:20:33;;;;;;;2.53;2.33;;;7.40;99.90;;;;;;478077;248;27527;-69
2022/09/20 06:22:34;;;;;;;2.40;2.30;;;7.50;99.90;;;;;;478066;248;28260;-70
2022/09/20 06:24:35;;;;;;;2.37;2.17;;;7.50;99.90;;;;;;478048;248;27991;-67
2022/09/20 06:26:36;;;;;;;2.70;2.50;;;7.50;99.90;;;;;;477967;248;28093;-68
2022/09/20 06:28:38;;;;;;;2.43;2.23;;;7.60;99.90;;;;;;478015;248;28615;-72
2022/09/20 06:30:39;;;;;;;2.63;2.53;;;7.50;99.90;;;;;;478074;248;28331;-69
2022/09/20 06:32:40;;;;;;;2.40;2.20;;;7.60;99.90;;;;;;478056;248;28445;-69
2022/09/20 06:34:41;;;;;;;2.53;2.43;;;7.70;99.90;;;;;;478031;248;28419;-68
2022/09/20 06:41:27;;;;;;;6.43;2.43;;;7.80;99.90;;;;;;478050;249;27775;-68
2022/09/20 06:43:30;;;;;;;2.57;2.47;;;7.90;99.90;;;;;;478042;248;28124;-69
2022/09/20 06:45:30;;;;;;;3.23;2.70;;;7.90;99.90;;;;;;477965;248;27947;-68
2022/09/20 06:47:31;;;;;;;2.93;2.73;;;7.90;99.90;;;;;;477970;248;27906;-70
2022/09/20 06:49:34;;;;;;;2.53;2.37;;;8.00;99.90;;;;;;478043;248;27647;-71
2022/09/20 06:51:34;;;;;;;2.50;2.30;;;8.10;99.90;;;;;;477956;248;28294;-68
2022/09/20 06:53:35;;;;;;;2.43;2.33;;;8.30;99.90;;;;;;478049;248;28037;-69
2022/09/20 06:55:41;;;;;;;2.40;2.20;;;8.40;99.90;;;;;;478014;248;28447;-68
2022/09/20 06:57:40;;;;;;;3.43;3.00;;;8.50;99.90;;;;;;477887;249;28058;-68
2022/09/20 06:59:42;;;;;;;2.37;2.20;;;8.70;99.90;;;;;;478055;248;28016;-69
2022/09/20 07:01:43;;;;;;;2.97;2.77;;;8.70;99.90;;;;;;478040;248;28129;-69
2022/09/20 07:03:44;;;;;;;2.37;2.27;;;8.80;99.90;;;;;;478031;248;28396;-68
2022/09/20 07:05:45;;;;;;;2.57;2.40;;;8.80;99.90;;;;;;478043;248;28465;-69
2022/09/20 07:07:47;;;;;;;2.50;2.30;;;8.80;99.90;;;;;;477797;248;30295;-69
2022/09/20 07:09:48;;;;;;;2.60;2.50;;;8.80;99.90;;;;;;478052;248;28400;-69
2022/09/20 07:11:49;;;;;;;2.47;2.27;;;8.90;99.90;;;;;;478053;248;27986;-71
2022/09/20 07:13:50;;;;;;;6.70;2.97;;;9.00;99.90;;;;;;478051;248;27991;-67
2022/09/20 07:15:52;;;;;;;3.03;2.93;;;9.00;99.90;;;;;;478057;248;27989;-70
2022/09/20 07:17:53;;;;;;;3.27;3.00;;;9.00;99.90;;;;;;477940;248;27719;-69
2022/09/20 07:19:55;;;;;;;2.93;2.67;;;9.10;99.90;;;;;;478055;248;28117;-68
2022/09/20 07:21:55;;;;;;;2.73;2.00;;;9.10;99.90;;;;;;477968;249;28029;-71
2022/09/20 07:23:57;;;;;;;2.57;2.37;;;9.10;99.90;;;;;;477965;249;27903;-68
2022/09/20 07:25:59;;;;;;;2.10;2.00;;;9.10;99.90;;;;;;477801;248;28220;-68
2022/09/20 07:27:59;;;;;;;3.60;2.00;;;9.10;99.90;;;;;;477611;248;28005;-68
2022/09/20 07:30:01;;;;;;;2.20;2.00;;;9.20;99.90;;;;;;477824;248;28087;-69
2022/09/20 07:32:02;;;;;;;2.07;1.90;;;9.20;99.90;;;;;;477983;248;28063;-71
2022/09/20 07:34:03;;;;;;;2.70;2.00;;;9.30;99.90;;;;;;478039;248;27845;-68
2022/09/20 07:36:04;;;;;;;2.13;2.00;;;9.40;99.90;;;;;;477899;249;28057;-71
2022/09/20 07:38:05;;;;;;;1.90;1.80;;;9.50;99.90;;;;;;477998;248;28020;-68
2022/09/20 07:40:07;;;;;;;1.70;1.60;;;9.60;99.90;;;;;;478060;248;28451;-69
2022/09/20 07:42:08;;;;;;;2.10;2.00;;;9.70;99.90;;;;;;478055;248;28261;-71
2022/09/20 07:44:23;;;;;;;2.10;2.00;;;9.70;99.90;;;;;;478044;248;28186;-68
2022/09/20 07:46:23;;;;;;;2.60;1.93;;;9.90;99.90;;;;;;477792;248;28689;-70
2022/09/20 07:48:24;;;;;;;4.20;2.03;;;9.90;99.90;;;;;;478051;248;29227;-68
2022/09/20 07:50:25;;;;;;;2.10;2.00;;;10.00;99.90;;;;;;478036;248;28095;-69
2022/09/20 07:52:26;;;;;;;3.33;2.00;;;9.90;99.90;;;;;;478100;248;28280;-69
2022/09/20 07:54:27;;;;;;;2.60;1.90;;;9.90;99.90;;;;;;478087;248;28357;-68
2022/09/20 07:56:29;;;;;;;2.33;1.83;;;9.90;99.90;;;;;;477928;248;27747;-68
2022/09/20 07:58:30;;;;;;;1.87;1.77;;;9.90;99.90;;;;;;478085;248;27843;-69
2022/09/20 08:00:31;;;;;;;2.43;2.20;;;10.00;99.90;;;;;;478087;248;28249;-70
2022/09/20 08:02:32;;;;;;;4.00;2.57;;;10.00;99.90;;;;;;478086;248;27901;-72
2022/09/20 08:04:34;;;;;;;2.23;1.90;;;10.10;99.90;;;;;;478089;248;27873;-69
2022/09/20 08:06:35;;;;;;;5.27;1.90;;;10.20;99.90;;;;;;478014;248;28175;-70
2022/09/20 08:08:36;;;;;;;2.20;2.00;;;10.20;99.90;;;;;;478088;248;27923;-68
2022/09/20 08:10:40;;;;;;;4.40;2.20;;;10.30;99.90;;;;;;478121;248;28007;-69
2022/09/20 08:12:40;;;;;;;2.57;2.07;;;10.40;99.90;;;;;;477971;248;28227;-71
2022/09/20 08:14:40;;;;;;;3.03;2.20;;;10.60;99.90;;;;;;478028;248;28061;-70
2022/09/20 08:16:41;;;;;;;2.43;1.90;;;10.70;99.90;;;;;;477938;248;28594;-69
2022/09/20 08:18:43;;;;;;;4.57;2.30;;;10.70;99.90;;;;;;478044;248;29309;-69
2022/09/20 08:20:44;;;;;;;4.77;1.90;;;10.80;99.90;;;;;;478086;248;28426;-69
2022/09/20 08:22:45;;;;;;;4.80;1.90;;;10.80;99.90;;;;;;478095;248;28011;-71
2022/09/20 08:24:46;;;;;;;1.97;1.87;;;10.80;99.90;;;;;;478082;248;27980;-68
2022/09/20 08:26:47;;;;;;;4.13;1.80;;;10.90;99.90;;;;;;477931;248;28141;-69
2022/09/20 08:28:50;;;;;;;3.87;2.20;;;11.00;99.90;;;;;;478060;248;28078;-68
2022/09/20 08:30:50;;;;;;;7.47;1.73;;;11.10;99.90;;;;;;477957;249;28055;-69
2022/09/20 08:32:52;;;;;;;4.80;1.87;;;11.10;99.90;;;;;;478077;248;28172;-70
2022/09/20 08:34:52;;;;;;;5.60;2.13;;;11.10;99.90;;;;;;478013;249;27991;-69
2022/09/20 08:36:55;;;;;;;3.50;1.87;;;11.00;99.90;;;;;;477958;248;28023;-69
2022/09/20 08:38:55;;;;;;;4.70;2.00;;;11.00;99.90;;;;;;478004;248;28018;-68
2022/09/20 08:40:57;;;;;;;6.40;1.80;;;11.00;99.90;;;;;;478038;248;28407;-69
2022/09/20 08:42:57;;;;;;;4.93;1.90;;;11.00;99.90;;;;;;478072;248;28698;-71
2022/09/20 08:44:59;;;;;;;2.10;1.90;;;11.00;99.90;;;;;;478065;248;28263;-68
2022/09/20 08:47:01;;;;;;;5.80;1.80;;;11.10;99.90;;;;;;477956;248;28171;-69
2022/09/20 08:49:01;;;;;;;1.57;1.50;;;11.30;99.90;;;;;;478017;249;28003;-69
2022/09/20 08:51:03;;;;;;;2.40;1.70;;;11.40;99.90;;;;;;478078;248;28275;-70
2022/09/20 08:53:04;;;;;;;4.13;1.70;;;11.60;99.90;;;;;;478083;248;28374;-72
2022/09/20 08:55:05;;;;;;;1.70;1.60;;;11.70;99.90;;;;;;478071;248;28389;-70
2022/09/20 08:57:06;;;;;;;7.80;1.83;;;11.80;99.90;;;;;;477992;248;28244;-70
2022/09/20 08:59:07;;;;;;;2.20;1.70;;;11.90;99.90;;;;;;478035;248;28262;-69
2022/09/20 09:01:09;;;;;;;2.33;1.83;;;11.90;99.90;;;;;;478048;248;28472;-70
2022/09/20 09:03:10;;;;;;;3.00;1.93;;;11.90;99.90;;;;;;478032;248;28414;-72
2022/09/20 09:05:11;;;;;;;3.37;2.03;;;11.90;99.90;;;;;;478059;248;29117;-69
2022/09/20 09:07:12;;;;;;;2.83;1.60;;;12.00;99.90;;;;;;477984;248;29132;-70
2022/09/20 09:09:14;;;;;;;8.47;1.97;;;12.10;99.90;;;;;;478025;247;29033;-69
2022/09/20 09:11:15;;;;;;;3.97;1.70;;;12.00;99.90;;;;;;478036;248;28361;-69
2022/09/20 09:13:16;;;;;;;4.77;2.00;;;12.10;99.90;;;;;;478068;248;28358;-71
2022/09/20 09:15:18;;;;;;;2.87;1.80;;;12.00;99.90;;;;;;478064;248;28326;-68
2022/09/20 09:17:19;;;;;;;4.33;1.97;;;12.10;99.90;;;;;;477961;248;28397;-69
2022/09/20 09:19:20;;;;;;;4.70;1.73;;;12.10;99.90;;;;;;478071;248;28226;-69
2022/09/20 09:21:21;;;;;;;3.03;1.80;;;12.10;99.90;;;;;;478086;248;28445;-69
2022/09/20 09:23:24;;;;;;;8.03;1.60;;;12.10;99.90;;;;;;478086;248;28572;-71
2022/09/20 09:25:24;;;;;;;2.70;1.80;;;12.10;99.90;;;;;;477996;248;28579;-69
2022/09/20 09:27:25;;;;;;;3.87;2.07;;;12.10;99.90;;;;;;477983;248;28610;-70
2022/09/20 09:29:26;;;;;;;7.70;2.10;;;12.10;99.90;;;;;;478055;248;29692;-69
2022/09/20 09:31:28;;;;;;;3.13;1.90;;;12.20;99.90;;;;;;478077;248;29050;-71
2022/09/20 09:33:29;;;;;;;4.13;2.00;;;12.30;99.90;;;;;;478088;248;28654;-71
2022/09/20 09:35:30;;;;;;;3.73;1.90;;;12.30;99.90;;;;;;478065;248;28093;-69
2022/09/20 09:37:32;;;;;;;2.00;1.70;;;12.30;99.90;;;;;;477969;248;28146;-69
2022/09/20 09:39:33;;;;;;;5.90;1.87;;;12.30;99.90;;;;;;478049;248;28376;-68
2022/09/20 09:41:35;;;;;;;1.77;1.63;;;12.40;99.90;;;;;;478080;248;28455;-69
2022/09/20 09:43:36;;;;;;;4.37;2.10;;;12.50;99.90;;;;;;477977;249;28471;-70
2022/09/20 09:45:39;;;;;;;4.43;2.00;;;12.60;99.90;;;;;;478023;248;28635;-69
2022/09/20 09:47:40;;;;;;;2.97;1.53;;;12.50;99.90;;;;;;477988;248;28879;-69
2022/09/20 09:49:42;;;;;;;5.93;1.77;;;12.50;99.90;;;;;;478073;248;28605;-69
2022/09/20 09:51:43;;;;;;;1.70;1.53;;;12.30;99.90;;;;;;478014;248;30380;-68
2022/09/20 09:53:44;;;;;;;6.10;1.83;;;12.30;99.90;;;;;;478077;248;29003;-69
2022/09/20 09:55:46;;;;;;;2.97;1.50;;;12.30;99.90;;;;;;478071;248;28947;-72
2022/09/20 09:57:50;;;;;;;1.83;1.60;;;12.40;99.90;;;;;;477979;248;28779;-71
2022/09/20 09:59:48;;;;;;;8.83;1.97;;;12.40;99.90;;;;;;477797;249;28779;-68
2022/09/20 10:01:49;;;;;;;3.20;2.07;;;12.40;99.90;;;;;;478035;248;28327;-68
2022/09/20 10:03:50;;;;;;;1.83;1.60;;;12.40;99.90;;;;;;478083;249;28535;-69
2022/09/20 10:05:52;;;;;;;6.43;1.80;;;12.40;99.90;;;;;;478086;248;28623;-73
2022/09/20 10:07:53;;;;;;;2.23;1.80;;;12.50;99.90;;;;;;478000;248;28561;-68
2022/09/20 10:09:54;;;;;;;2.30;1.30;;;12.60;99.90;;;;;;478069;248;28616;-69
2022/09/20 10:11:57;;;;;;;2.23;1.70;;;12.70;99.90;;;;;;478049;248;28926;-68
2022/09/20 10:13:57;;;;;;;9.40;2.20;;;12.70;99.90;;;;;;477964;249;29108;-69
2022/09/20 10:15:58;;;;;;;5.60;1.63;;;12.70;99.90;;;;;;478071;248;29242;-72
2022/09/20 10:17:59;;;;;;;4.43;1.97;;;12.60;99.90;;;;;;478015;248;28842;-69
2022/09/20 10:20:02;;;;;;;3.00;1.50;;;12.60;99.90;;;;;;478070;248;28431;-69
2022/09/20 10:22:02;;;;;;;3.53;1.50;;;12.70;99.90;;;;;;477978;248;28578;-69
2022/09/20 10:24:03;;;;;;;1.87;1.57;;;12.90;99.90;;;;;;478078;248;28378;-69
2022/09/20 10:26:05;;;;;;;2.93;1.50;;;13.10;99.90;;;;;;478049;248;28912;-73
2022/09/20 10:28:05;;;;;;;2.53;1.83;;;13.20;99.90;;;;;;478009;248;28812;-69
2022/09/20 10:30:07;;;;;;;3.73;1.73;;;13.40;99.90;;;;;;478036;248;28819;-70
2022/09/20 10:32:08;;;;;;;3.17;1.70;;;13.50;99.90;;;;;;478038;248;29600;-69
2022/09/20 10:34:09;;;;;;;2.70;1.37;;;13.50;99.90;;;;;;478077;248;28679;-69
2022/09/20 10:36:11;;;;;;;4.10;1.60;;;13.50;99.90;;;;;;477983;248;28273;-71
2022/09/20 10:38:13;;;;;;;4.90;1.40;;;13.40;99.90;;;;;;478050;248;28364;-71
2022/09/20 10:40:13;;;;;;;2.20;1.70;;;13.40;99.90;;;;;;478034;248;28282;-69
2022/09/20 10:44:34;;;;;;;4.13;1.67;;;13.30;99.90;;;;;;478061;249;28682;-70
2022/09/20 10:46:35;;;;;;;1.57;1.47;;;13.20;99.90;;;;;;478000;248;28764;-70
2022/09/20 10:48:36;;;;;;;1.87;1.70;;;13.30;99.90;;;;;;478049;248;28311;-68